createdAt,value
2022-09-18T00:00:02.924Z,114490.28
2022-09-18T00:02:16.014Z,114490.28
2022-09-18T00:04:20.032Z,114490.28
2022-09-18T00:06:25.503Z,114490.28
2022-09-18T00:08:32.500Z,114490.28
2022-09-18T00:10:50.667Z,114490.28
2022-09-18T00:12:54.659Z,114490.28
2022-09-18T00:14:58.718Z,114490.28
2022-09-18T00:17:07.017Z,114490.28
2022-09-18T00:19:13.377Z,114490.28
2022-09-18T00:21:20.605Z,114490.28
2022-09-18T00:23:24.751Z,114490.28
2022-09-18T00:25:28.127Z,114490.28
2022-09-18T00:27:32.486Z,114490.28
2022-09-18T00:29:36.182Z,114490.28
2022-09-18T00:31:41.781Z,114490.28
2022-09-18T00:33:46.370Z,114490.28
2022-09-18T00:35:50.110Z,114490.28
2022-09-18T00:37:53.958Z,114490.28
2022-09-18T00:39:58.203Z,114490.28
2022-09-18T00:42:01.790Z,114490.28
2022-09-18T00:44:45.665Z,114490.28
2022-09-18T00:46:50.062Z,114490.28
2022-09-18T00:49:11.858Z,114490.28
2022-09-18T00:51:16.193Z,114490.28
2022-09-18T00:53:20.402Z,114490.28
2022-09-18T00:55:28.738Z,114490.28
2022-09-18T00:57:36.692Z,114490.28
2022-09-18T00:59:42.522Z,114490.28
2022-09-18T01:01:46.077Z,114490.28
2022-09-18T01:03:49.910Z,114490.28
2022-09-18T01:06:01.230Z,114490.28
2022-09-18T01:08:13.597Z,114490.28
2022-09-18T01:10:43.350Z,114490.28
2022-09-18T01:13:00.120Z,114490.28
2022-09-18T01:15:20.201Z,114490.28
2022-09-18T01:17:32.746Z,114490.28
2022-09-18T01:19:43.913Z,114490.28
2022-09-18T01:22:02.826Z,114490.28
2022-09-18T01:24:08.778Z,114490.28
2022-09-18T01:26:31.689Z,114490.28
2022-09-18T01:28:39.150Z,114490.28
2022-09-18T01:30:45.019Z,114490.28
2022-09-18T01:32:52.948Z,114490.28
2022-09-18T01:34:58.121Z,114490.28
2022-09-18T01:37:24.791Z,114490.28
2022-09-18T01:39:29.349Z,114490.28
2022-09-18T01:41:35.281Z,114490.28
2022-09-18T01:43:40.831Z,114490.28
2022-09-18T01:45:53.258Z,114490.28
2022-09-18T01:48:06.951Z,114490.28
2022-09-18T01:50:19.026Z,114490.28
2022-09-18T01:52:23.295Z,114490.28
2022-09-18T01:54:31.596Z,114490.28
2022-09-18T01:56:37.941Z,114490.28
2022-09-18T01:58:43.479Z,114490.28
2022-09-18T02:00:50.440Z,114490.28
2022-09-18T02:02:58.263Z,114490.28
2022-09-18T02:05:10.895Z,114490.28
2022-09-18T02:07:27.468Z,114490.28
2022-09-18T02:09:32.637Z,114490.28
2022-09-18T02:11:39.172Z,114490.28
2022-09-18T02:13:50.250Z,114490.28
2022-09-18T02:16:02.400Z,114490.28
2022-09-18T02:18:09.950Z,114490.28
2022-09-18T02:20:24.778Z,114490.28
2022-09-18T02:22:31.577Z,114490.28
2022-09-18T02:24:37.366Z,114490.28
2022-09-18T02:26:46.046Z,114490.28
2022-09-18T02:28:50.632Z,114490.28
2022-09-18T02:30:57.546Z,114490.28
2022-09-18T02:33:01.308Z,114490.28
2022-09-18T02:35:06.708Z,114490.28
2022-09-18T02:37:10.681Z,114490.28
2022-09-18T02:39:33.603Z,114490.28
2022-09-18T02:41:40.631Z,114490.28
2022-09-18T02:43:52.477Z,114490.28
2022-09-18T02:45:59.678Z,114490.28
2022-09-18T02:48:21.520Z,114490.28
2022-09-18T02:50:32.612Z,114490.28
2022-09-18T02:53:04.860Z,114490.28
2022-09-18T02:55:19.938Z,114490.28
2022-09-18T02:57:36.827Z,114490.28
2022-09-18T02:59:55.530Z,114490.28
2022-09-18T03:02:00.176Z,114490.28
2022-09-18T03:04:15.294Z,114490.28
2022-09-18T03:06:35.287Z,114490.28
2022-09-18T03:08:39.018Z,114490.28
2022-09-18T03:10:44.121Z,114490.28
2022-09-18T03:12:48.281Z,114490.28
2022-09-18T03:14:55.806Z,114490.28
2022-09-18T03:17:00.934Z,114490.28
2022-09-18T03:19:05.017Z,114490.28
2022-09-18T03:21:09.440Z,114490.28
2022-09-18T03:23:13.183Z,114490.28
2022-09-18T03:25:18.318Z,114490.28
2022-09-18T03:27:22.124Z,114490.28
2022-09-18T03:29:25.816Z,114490.28
2022-09-18T03:31:30.794Z,114490.28
2022-09-18T03:33:36.512Z,114490.28
2022-09-18T03:35:40.392Z,114490.28
2022-09-18T03:37:43.959Z,114490.28
2022-09-18T03:39:51.567Z,114490.28
2022-09-18T03:41:55.454Z,114490.28
2022-09-18T03:43:59.219Z,114490.28
2022-09-18T03:46:03.388Z,114490.28
2022-09-18T03:48:07.073Z,114490.28
2022-09-18T03:50:13.138Z,114490.28
2022-09-18T03:52:17.575Z,114490.28
2022-09-18T03:54:29.115Z,114490.28
2022-09-18T03:56:49.462Z,114490.28
2022-09-18T03:59:12.973Z,114490.28
2022-09-18T04:01:35.051Z,114490.28
2022-09-18T04:04:01.382Z,114490.28
2022-09-18T04:06:31.900Z,114490.28
2022-09-18T04:09:08.378Z,114490.28
2022-09-18T04:11:20.230Z,114490.28
2022-09-18T04:13:24.412Z,114490.28
2022-09-18T04:15:28.450Z,114490.28
2022-09-18T04:17:33.070Z,114490.28
2022-09-18T04:19:37.043Z,114490.28
2022-09-18T04:21:40.998Z,114490.28
2022-09-18T04:23:44.706Z,114490.28
2022-09-18T04:25:51.946Z,114490.28
2022-09-18T04:27:55.615Z,114490.28
2022-09-18T04:29:59.600Z,114490.28
2022-09-18T04:32:04.381Z,114490.28
2022-09-18T04:34:08.541Z,114490.28
2022-09-18T04:36:12.250Z,114490.28
2022-09-18T04:38:16.203Z,114490.28
2022-09-18T04:40:19.717Z,114490.28
2022-09-18T04:42:23.721Z,114490.28
2022-09-18T04:44:27.368Z,114490.28
2022-09-18T04:46:31.535Z,114490.28
2022-09-18T04:48:36.831Z,114490.28
2022-09-18T04:50:41.904Z,114490.28
2022-09-18T04:52:51.811Z,114490.28
2022-09-18T04:54:55.902Z,114490.28
2022-09-18T04:57:04.131Z,114490.28
2022-09-18T04:59:08.564Z,114490.28
2022-09-18T05:01:15.989Z,114490.28
2022-09-18T05:03:20.744Z,114490.28
2022-09-18T05:05:25.902Z,114490.28
2022-09-18T05:07:29.604Z,114490.28
2022-09-18T05:09:33.103Z,114490.28
2022-09-18T05:11:39.288Z,114490.28
2022-09-18T05:13:44.488Z,114490.28
2022-09-18T05:15:55.489Z,114490.28
2022-09-18T05:18:03.541Z,114490.28
2022-09-18T05:20:11.287Z,114490.28
2022-09-18T05:22:16.443Z,114490.28
2022-09-18T05:24:26.978Z,114490.28
2022-09-18T05:26:32.436Z,114490.28
2022-09-18T05:28:36.667Z,114490.28
2022-09-18T05:30:42.925Z,114490.28
2022-09-18T05:32:58.719Z,114490.28
2022-09-18T05:35:05.478Z,114490.28
2022-09-18T05:37:10.778Z,114490.28
2022-09-18T05:39:17.816Z,114490.28
2022-09-18T05:41:24.972Z,114490.28
2022-09-18T05:43:28.562Z,114490.28
2022-09-18T05:45:32.252Z,114490.28
2022-09-18T05:47:39.864Z,114490.28
2022-09-18T05:49:45.796Z,114490.28
2022-09-18T05:51:49.803Z,114490.28
2022-09-18T05:54:00.562Z,114490.28
2022-09-18T05:56:22.772Z,114490.28
2022-09-18T05:58:26.869Z,114490.28
2022-09-18T06:00:34.850Z,114490.28
2022-09-18T06:02:45.355Z,114490.28
2022-09-18T06:04:50.055Z,114490.28
2022-09-18T06:06:54.113Z,114490.28
2022-09-18T06:09:00.595Z,114490.28
2022-09-18T06:11:04.395Z,114490.28
2022-09-18T06:13:11.010Z,114490.28
2022-09-18T06:15:19.688Z,114490.28
2022-09-18T06:17:23.975Z,114490.28
2022-09-18T06:19:30.118Z,114490.28
2022-09-18T06:21:38.197Z,114490.28
2022-09-18T06:23:43.943Z,114490.28
2022-09-18T06:26:08.596Z,114490.28
2022-09-18T06:28:15.353Z,114490.28
2022-09-18T06:30:19.114Z,114490.28
2022-09-18T06:32:22.833Z,114490.28
2022-09-18T06:34:26.689Z,114490.28
2022-09-18T06:36:34.214Z,114490.28
2022-09-18T06:39:00.715Z,114490.28
2022-09-18T06:41:04.561Z,114490.28
2022-09-18T06:43:20.730Z,114490.28
2022-09-18T06:45:39.695Z,114490.28
2022-09-18T06:47:43.732Z,114490.28
2022-09-18T06:49:50.958Z,114490.28
2022-09-18T06:51:55.163Z,114490.28
2022-09-18T06:53:58.945Z,114490.28
2022-09-18T06:56:04.411Z,114490.28
2022-09-18T06:58:12.406Z,114490.28
2022-09-18T07:00:15.780Z,114490.28
2022-09-18T07:02:25.099Z,114490.28
2022-09-18T07:04:41.040Z,114490.28
2022-09-18T07:06:46.896Z,114490.28
2022-09-18T07:08:51.447Z,114490.28
2022-09-18T07:11:11.053Z,114490.28
2022-09-18T07:13:18.080Z,114490.28
2022-09-18T07:15:22.631Z,114490.28
2022-09-18T07:17:26.683Z,114490.28
2022-09-18T07:19:33.224Z,114490.28
2022-09-18T07:21:40.649Z,114490.28
2022-09-18T07:23:45.744Z,114490.28
2022-09-18T07:25:49.518Z,114490.28
2022-09-18T07:27:53.499Z,114490.28
2022-09-18T07:29:58.276Z,114490.28
2022-09-18T07:32:06.723Z,114490.28
2022-09-18T07:34:12.441Z,114490.28
2022-09-18T07:36:15.935Z,114490.28
2022-09-18T07:38:19.588Z,114490.28
2022-09-18T07:40:29.741Z,114490.28
2022-09-18T07:42:42.177Z,114490.28
2022-09-18T07:44:46.306Z,114490.28
2022-09-18T07:46:57.585Z,114490.28
2022-09-18T07:49:01.218Z,114490.28
2022-09-18T07:51:06.523Z,114490.28
2022-09-18T07:53:11.978Z,114490.28
2022-09-18T07:55:20.645Z,114490.28
2022-09-18T07:57:33.662Z,114490.28
2022-09-18T08:00:00.058Z,114490.28
2022-09-18T08:02:04.009Z,114490.28
2022-09-18T08:04:13.118Z,114490.28
2022-09-18T08:06:37.493Z,114490.28
2022-09-18T08:09:02.428Z,114490.28
2022-09-18T08:11:14.595Z,114490.28
2022-09-18T08:13:36.839Z,114490.28
2022-09-18T08:16:07.164Z,114490.28
2022-09-18T08:18:43.182Z,114490.28
2022-09-18T08:21:08.551Z,114490.28
2022-09-18T08:23:26.416Z,114490.28
2022-09-18T08:25:31.290Z,114490.28
2022-09-18T08:27:38.016Z,114490.28
2022-09-18T08:29:45.524Z,114490.28
2022-09-18T08:31:49.863Z,114490.28
2022-09-18T08:33:54.121Z,114490.28
2022-09-18T08:36:17.629Z,114490.28
2022-09-18T08:38:35.607Z,114490.28
2022-09-18T08:41:46.140Z,114490.28
2022-09-18T08:43:55.290Z,114490.28
2022-09-18T08:46:22.059Z,114490.28
2022-09-18T08:48:35.223Z,114490.28
2022-09-18T08:50:41.950Z,114490.28
2022-09-18T08:52:51.258Z,114490.28
2022-09-18T08:55:15.252Z,114490.28
2022-09-18T08:57:38.818Z,114490.28
2022-09-18T08:59:47.649Z,114490.28
2022-09-18T09:02:11.005Z,114490.28
2022-09-18T09:04:18.545Z,114490.28
2022-09-18T09:06:51.072Z,114490.28
2022-09-18T09:09:27.142Z,114490.28
2022-09-18T09:11:39.408Z,114490.28
2022-09-18T09:14:01.309Z,114490.28
2022-09-18T09:16:09.969Z,114490.28
2022-09-18T09:18:24.151Z,114490.28
2022-09-18T09:20:43.209Z,114490.28
2022-09-18T09:23:08.762Z,114490.28
2022-09-18T09:25:17.210Z,114490.28
2022-09-18T09:27:40.546Z,114490.28
2022-09-18T09:30:22.715Z,114490.28
2022-09-18T09:32:48.947Z,114490.28
2022-09-18T09:35:25.136Z,114490.28
2022-09-18T09:37:49.447Z,114490.28
2022-09-18T09:40:00.570Z,114490.28
2022-09-18T09:42:17.458Z,114490.28
2022-09-18T09:44:39.250Z,114490.28
2022-09-18T09:47:15.141Z,114490.28
2022-09-18T09:49:33.608Z,114490.28
2022-09-18T09:51:41.720Z,114490.28
2022-09-18T09:53:45.605Z,114490.28
2022-09-18T09:55:49.038Z,114490.28
2022-09-18T09:58:02.017Z,114490.28
2022-09-18T10:00:12.250Z,114490.28
2022-09-18T10:02:35.324Z,114490.28
2022-09-18T10:04:47.398Z,114490.28
2022-09-18T10:07:00.504Z,114490.28
2022-09-18T10:09:11.363Z,114490.28
2022-09-18T10:11:16.411Z,114490.28
2022-09-18T10:13:29.242Z,114490.28
2022-09-18T10:15:45.010Z,114490.28
2022-09-18T10:17:55.160Z,114490.28
2022-09-18T10:19:58.756Z,114490.28
2022-09-18T10:22:06.066Z,114490.28
2022-09-18T10:24:27.237Z,114490.28
2022-09-18T10:26:42.372Z,114490.28
2022-09-18T10:28:49.309Z,114490.28
2022-09-18T10:31:03.781Z,114490.28
2022-09-18T10:33:29.822Z,114490.28
2022-09-18T10:36:00.675Z,114490.28
2022-09-18T10:38:04.184Z,114490.28
2022-09-18T10:40:29.878Z,114490.28
2022-09-18T10:42:35.702Z,114490.28
2022-09-18T10:45:08.653Z,114490.28
2022-09-18T10:47:20.144Z,114490.28
2022-09-18T10:49:29.872Z,114490.28
2022-09-18T10:51:36.851Z,114490.28
2022-09-18T10:53:40.830Z,114490.28
2022-09-18T10:56:06.129Z,114490.28
2022-09-18T10:58:16.902Z,114490.28
2022-09-18T11:00:30.401Z,114490.28
2022-09-18T11:02:41.089Z,114490.28
2022-09-18T11:04:48.938Z,114490.28
2022-09-18T11:06:55.652Z,114474.25
2022-09-18T11:09:03.989Z,114350.06
2022-09-18T11:11:31.055Z,114215.88
2022-09-18T11:13:50.919Z,114043.66
2022-09-18T11:16:00.505Z,114059.69
2022-09-18T11:18:08.847Z,113985.59
2022-09-18T11:20:21.908Z,113909.50
2022-09-18T11:22:36.349Z,113743.28
2022-09-18T11:24:47.445Z,113685.22
2022-09-18T11:26:53.131Z,113651.16
2022-09-18T11:29:07.409Z,113549.03
2022-09-18T11:31:20.257Z,113543.03
2022-09-18T11:33:31.871Z,113352.81
2022-09-18T11:35:45.448Z,113172.63
2022-09-18T11:37:59.875Z,113182.63
2022-09-18T11:40:08.272Z,113010.44
2022-09-18T11:42:16.800Z,112816.25
2022-09-18T11:44:28.201Z,112407.84
2022-09-18T11:46:39.484Z,112323.78
2022-09-18T11:48:43.581Z,112265.72
2022-09-18T11:50:48.047Z,112463.91
2022-09-18T11:52:57.996Z,112399.84
2022-09-18T11:55:05.273Z,112505.94
2022-09-18T11:57:18.716Z,112357.81
2022-09-18T11:59:23.789Z,112331.78
2022-09-18T12:01:50.019Z,112299.75
2022-09-18T12:04:06.106Z,112163.63
2022-09-18T12:06:39.456Z,111441.09
2022-09-18T12:08:59.919Z,110122.41
2022-09-18T12:11:24.256Z,108836.19
2022-09-18T12:13:41.089Z,106672.69
2022-09-18T12:15:49.793Z,106398.84
2022-09-18T12:18:19.850Z,105631.34
2022-09-18T12:20:32.886Z,105363.56
2022-09-18T12:22:53.455Z,104794.06
2022-09-18T12:25:03.188Z,104662.19
2022-09-18T12:27:39.497Z,104324.53
2022-09-18T12:30:12.539Z,104382.47
2022-09-18T12:32:16.465Z,104070.84
2022-09-18T12:34:29.431Z,104010.91
2022-09-18T12:36:39.544Z,104036.88
2022-09-18T12:39:03.185Z,103927.00
2022-09-18T12:41:33.049Z,103767.19
2022-09-18T12:43:47.597Z,103781.16
2022-09-18T12:46:15.154Z,103723.25
2022-09-18T12:48:32.055Z,103767.19
2022-09-18T12:50:53.820Z,104038.88
2022-09-18T12:53:19.530Z,104030.88
2022-09-18T12:55:26.601Z,104306.56
2022-09-18T12:57:40.223Z,104632.22
2022-09-18T13:00:02.282Z,105115.78
2022-09-18T13:02:15.781Z,106532.75
2022-09-18T13:04:19.579Z,106652.69
2022-09-18T13:06:30.302Z,106568.75
2022-09-18T13:08:41.106Z,107654.31
2022-09-18T13:10:46.066Z,108056.22
2022-09-18T13:12:53.877Z,108132.22
2022-09-18T13:15:09.049Z,108628.19
2022-09-18T13:17:21.733Z,109132.19
2022-09-18T13:19:34.176Z,109608.28
2022-09-18T13:21:42.798Z,109752.31
2022-09-18T13:23:47.481Z,110644.63
2022-09-18T13:25:52.837Z,111737.28
2022-09-18T13:27:57.849Z,112359.81
2022-09-18T13:30:14.331Z,112936.38
2022-09-18T13:32:37.179Z,113322.78
2022-09-18T13:34:47.381Z,113605.13
2022-09-18T13:36:51.415Z,114490.28
2022-09-18T13:38:56.128Z,114490.28
2022-09-18T13:41:08.055Z,114490.28
2022-09-18T13:43:34.762Z,114490.28
2022-09-18T13:45:39.411Z,114490.28
2022-09-18T13:48:05.503Z,114490.28
2022-09-18T13:50:18.389Z,114490.28
2022-09-18T13:52:34.336Z,114490.28
2022-09-18T13:54:38.341Z,114490.28
2022-09-18T13:57:00.329Z,114490.28
2022-09-18T13:59:03.939Z,114490.28
2022-09-18T14:01:09.023Z,114490.28
2022-09-18T14:03:15.713Z,114490.28
2022-09-18T14:05:30.637Z,114490.28
2022-09-18T14:07:36.968Z,114490.28
2022-09-18T14:09:51.782Z,114490.28
2022-09-18T14:11:55.600Z,114490.28
2022-09-18T14:14:00.083Z,114490.28
2022-09-18T14:16:12.212Z,114490.28
2022-09-18T14:18:18.190Z,114490.28
2022-09-18T14:20:23.126Z,114490.28
2022-09-18T14:22:35.211Z,114490.28
2022-09-18T14:24:40.217Z,114490.28
2022-09-18T14:26:43.922Z,114490.28
2022-09-18T14:28:48.496Z,114490.28
2022-09-18T14:31:24.631Z,114490.28
2022-09-18T14:33:28.449Z,114490.28
2022-09-18T14:35:44.233Z,114490.28
2022-09-18T14:37:48.247Z,114490.28
2022-09-18T14:39:57.578Z,114490.28
2022-09-18T14:42:08.519Z,114490.28
2022-09-18T14:44:16.206Z,114490.28
2022-09-18T14:46:24.125Z,114490.28
2022-09-18T14:48:47.868Z,114490.28
2022-09-18T14:51:03.950Z,114490.28
2022-09-18T14:53:25.510Z,114490.28
2022-09-18T14:55:37.609Z,114490.28
2022-09-18T14:57:44.402Z,114490.28
2022-09-18T14:59:55.817Z,114490.28
2022-09-18T15:02:13.082Z,114490.28
2022-09-18T15:04:22.531Z,114490.28
2022-09-18T15:06:33.285Z,114490.28
2022-09-18T15:08:37.546Z,114490.28
2022-09-18T15:10:41.848Z,114490.28
2022-09-18T15:12:48.043Z,114490.28
2022-09-18T15:15:00.556Z,114490.28
2022-09-18T15:17:05.977Z,114490.28
2022-09-18T15:19:17.887Z,114490.28
2022-09-18T15:21:27.983Z,114490.28
2022-09-18T15:23:40.609Z,114490.28
2022-09-18T15:25:45.032Z,114490.28
2022-09-18T15:27:49.579Z,114490.28
2022-09-18T15:30:04.228Z,114490.28
2022-09-18T15:32:08.936Z,114490.28
2022-09-18T15:34:18.272Z,114490.28
2022-09-18T15:36:27.141Z,114490.28
2022-09-18T15:38:41.987Z,114490.28
2022-09-18T15:40:46.577Z,114490.28
2022-09-18T15:43:13.382Z,114490.28
2022-09-18T15:45:19.314Z,114490.28
2022-09-18T15:47:36.254Z,114490.28
2022-09-18T15:49:39.766Z,114490.28
2022-09-18T15:51:43.345Z,114490.28
2022-09-18T15:54:16.418Z,114490.28
2022-09-18T15:56:22.101Z,114490.28
2022-09-18T15:58:30.385Z,114490.28
2022-09-18T16:00:39.748Z,114490.28
2022-09-18T16:02:44.539Z,114490.28
2022-09-18T16:04:48.481Z,114490.28
2022-09-18T16:06:54.794Z,114490.28
2022-09-18T16:08:58.880Z,114490.28
2022-09-18T16:11:02.773Z,114490.28
2022-09-18T16:13:12.019Z,114490.28
2022-09-18T16:15:27.007Z,114490.28
2022-09-18T16:17:33.757Z,114490.28
2022-09-18T16:19:44.667Z,114490.28
2022-09-18T16:21:48.343Z,114490.28
2022-09-18T16:23:59.576Z,114490.28
2022-09-18T16:26:03.111Z,114490.28
2022-09-18T16:28:13.432Z,114490.28
2022-09-18T16:30:17.112Z,114490.28
2022-09-18T16:32:22.793Z,114490.28
2022-09-18T16:34:29.801Z,114490.28
2022-09-18T16:36:42.919Z,114490.28
2022-09-18T16:38:46.225Z,114490.28
2022-09-18T16:40:50.278Z,114490.28
2022-09-18T16:42:59.437Z,114490.28
2022-09-18T16:45:07.952Z,114490.28
2022-09-18T16:47:13.620Z,114490.28
2022-09-18T16:49:21.979Z,114490.28
2022-09-18T16:51:25.794Z,114490.28
2022-09-18T16:53:35.435Z,114490.28
2022-09-18T16:55:41.704Z,114490.28
2022-09-18T16:57:45.890Z,114490.28
2022-09-18T16:59:50.623Z,114490.28
2022-09-18T17:02:03.697Z,114490.28
2022-09-18T17:04:09.184Z,114490.28
2022-09-18T17:06:18.903Z,114490.28
2022-09-18T17:08:22.561Z,114490.28
2022-09-18T17:10:26.440Z,114490.28
2022-09-18T17:12:30.250Z,114490.28
2022-09-18T17:14:35.949Z,114490.28
2022-09-18T17:16:44.528Z,114490.28
2022-09-18T17:18:48.619Z,114490.28
2022-09-18T17:20:52.132Z,114490.28
2022-09-18T17:22:55.895Z,114490.28
2022-09-18T17:24:59.440Z,114490.28
2022-09-18T17:27:03.820Z,114490.28
2022-09-18T17:29:08.068Z,114490.28
2022-09-18T17:31:12.572Z,114490.28
2022-09-18T17:33:20.229Z,114490.28
2022-09-18T17:35:23.862Z,114490.28
2022-09-18T17:37:31.006Z,114490.28
2022-09-18T17:39:34.765Z,114490.28
2022-09-18T17:41:39.215Z,114490.28
2022-09-18T17:43:51.375Z,114490.28
2022-09-18T17:46:01.742Z,114490.28
2022-09-18T17:48:05.250Z,114490.28
2022-09-18T17:50:09.764Z,114490.28
2022-09-18T17:52:13.497Z,114490.28
2022-09-18T17:54:18.145Z,114490.28
2022-09-18T17:56:22.036Z,114490.28
2022-09-18T17:58:25.901Z,114490.28
2022-09-18T18:00:32.175Z,114490.28
2022-09-18T18:02:36.230Z,114490.28
2022-09-18T18:04:42.014Z,114490.28
2022-09-18T18:06:48.222Z,114490.28
2022-09-18T18:08:52.024Z,114490.28
2022-09-18T18:10:56.470Z,114490.28
2022-09-18T18:13:00.173Z,114490.28
2022-09-18T18:15:03.852Z,114490.28
2022-09-18T18:17:08.009Z,114490.28
2022-09-18T18:19:15.238Z,114490.28
2022-09-18T18:21:20.346Z,114490.28
2022-09-18T18:23:24.580Z,114490.28
2022-09-18T18:25:28.323Z,114490.28
2022-09-18T18:27:33.735Z,114490.28
2022-09-18T18:29:43.301Z,114490.28
2022-09-18T18:31:50.369Z,114490.28
2022-09-18T18:33:55.578Z,114490.28
2022-09-18T18:36:22.096Z,114490.28
2022-09-18T18:38:26.377Z,114490.28
2022-09-18T18:40:31.002Z,114490.28
2022-09-18T18:42:34.737Z,114490.28
2022-09-18T18:44:38.470Z,114490.28
2022-09-18T18:46:42.425Z,114490.28
2022-09-18T18:48:46.218Z,114490.28
2022-09-18T18:50:51.425Z,114490.28
2022-09-18T18:52:54.813Z,114490.28
2022-09-18T18:55:00.684Z,114490.28
2022-09-18T18:57:04.436Z,114490.28
2022-09-18T18:59:09.772Z,114490.28
2022-09-18T19:01:15.196Z,114490.28
2022-09-18T19:03:19.125Z,114490.28
2022-09-18T19:05:31.368Z,114490.28
2022-09-18T19:07:34.906Z,114490.28
2022-09-18T19:09:38.466Z,114490.28
2022-09-18T19:11:49.466Z,114490.28
2022-09-18T19:13:53.879Z,114490.28
2022-09-18T19:15:57.963Z,114490.28
2022-09-18T19:18:03.108Z,114490.28
2022-09-18T19:20:06.958Z,114490.28
2022-09-18T19:22:14.148Z,114490.28
2022-09-18T19:24:19.681Z,114490.28
2022-09-18T19:26:24.187Z,114490.28
2022-09-18T19:28:31.194Z,114490.28
2022-09-18T19:30:38.761Z,114490.28
2022-09-18T19:32:43.162Z,114490.28
2022-09-18T19:34:46.693Z,114490.28
2022-09-18T19:36:51.166Z,114490.28
2022-09-18T19:38:55.855Z,114490.28
2022-09-18T19:41:00.823Z,114490.28
2022-09-18T19:43:09.980Z,114490.28
2022-09-18T19:45:16.866Z,114490.28
2022-09-18T19:47:22.046Z,114490.28
2022-09-18T19:49:30.452Z,114490.28
2022-09-18T19:51:35.613Z,114490.28
2022-09-18T19:53:39.480Z,114490.28
2022-09-18T19:55:47.771Z,114490.28
2022-09-18T19:57:53.796Z,114490.28
2022-09-18T20:00:01.821Z,114490.28
2022-09-18T20:02:18.341Z,114490.28
2022-09-18T20:04:22.249Z,114490.28
2022-09-18T20:06:25.902Z,114490.28
2022-09-18T20:08:29.514Z,114490.28
2022-09-18T20:10:33.699Z,114490.28
2022-09-18T20:12:38.583Z,114490.28
2022-09-18T20:14:42.393Z,114490.28
2022-09-18T20:16:46.330Z,114490.28
2022-09-18T20:18:51.032Z,114490.28
2022-09-18T20:20:54.798Z,114490.28
2022-09-18T20:22:58.432Z,114490.28
2022-09-18T20:25:02.090Z,114490.28
2022-09-18T20:27:06.016Z,114490.28
2022-09-18T20:29:14.051Z,114490.28
2022-09-18T20:31:23.379Z,114490.28
2022-09-18T20:33:27.506Z,114490.28
2022-09-18T20:35:31.242Z,114490.28
2022-09-18T20:37:35.070Z,114490.28
2022-09-18T20:39:38.740Z,114490.28
2022-09-18T20:41:42.372Z,114490.28
2022-09-18T20:43:46.364Z,114490.28
2022-09-18T20:45:59.489Z,114490.28
2022-09-18T20:48:05.465Z,114490.28
2022-09-18T20:50:10.202Z,114490.28
2022-09-18T20:52:14.820Z,114490.28
2022-09-18T20:54:23.885Z,114490.28
2022-09-18T20:56:29.004Z,114490.28
2022-09-18T20:58:37.640Z,114490.28
2022-09-18T21:00:41.512Z,114490.28
2022-09-18T21:02:50.393Z,114490.28
2022-09-18T21:04:55.458Z,114490.28
2022-09-18T21:07:00.792Z,114490.28
2022-09-18T21:09:08.692Z,114490.28
2022-09-18T21:11:16.065Z,114490.28
2022-09-18T21:13:21.031Z,114490.28
2022-09-18T21:15:24.939Z,114490.28
2022-09-18T21:17:29.179Z,114490.28
2022-09-18T21:19:32.838Z,114490.28
2022-09-18T21:21:39.732Z,114490.28
2022-09-18T21:23:59.949Z,114490.28
2022-09-18T21:26:14.400Z,114490.28
2022-09-18T21:28:21.462Z,114490.28
2022-09-18T21:30:27.592Z,114490.28
2022-09-18T21:32:31.925Z,114490.28
2022-09-18T21:34:36.006Z,114490.28
2022-09-18T21:36:47.957Z,114490.28
2022-09-18T21:38:52.598Z,114490.28
2022-09-18T21:40:59.447Z,114490.28
2022-09-18T21:43:04.394Z,114490.28
2022-09-18T21:45:07.936Z,114490.28
2022-09-18T21:47:13.226Z,114490.28
2022-09-18T21:49:17.277Z,114490.28
2022-09-18T21:51:21.717Z,114490.28
2022-09-18T21:53:25.257Z,114490.28
2022-09-18T21:55:29.829Z,114490.28
2022-09-18T21:57:33.767Z,114490.28
2022-09-18T21:59:37.949Z,114490.28
2022-09-18T22:01:43.877Z,114490.28
2022-09-18T22:03:53.294Z,114490.28
2022-09-18T22:05:57.239Z,114490.28
2022-09-18T22:08:05.930Z,114490.28
2022-09-18T22:10:10.038Z,114490.28
2022-09-18T22:12:14.250Z,114490.28
2022-09-18T22:14:19.624Z,114490.28
2022-09-18T22:16:44.138Z,114490.28
2022-09-18T22:18:49.619Z,114490.28
2022-09-18T22:20:53.808Z,114490.28
2022-09-18T22:22:57.471Z,114490.28
2022-09-18T22:25:04.240Z,114490.28
2022-09-18T22:27:09.198Z,114490.28
2022-09-18T22:29:36.139Z,114490.28
2022-09-18T22:31:40.392Z,114490.28
2022-09-18T22:33:44.162Z,114490.28
2022-09-18T22:35:47.799Z,114490.28
2022-09-18T22:37:51.383Z,114490.28
2022-09-18T22:39:55.213Z,114490.28
2022-09-18T22:42:01.883Z,114490.28
2022-09-18T22:44:06.563Z,114490.28
2022-09-18T22:46:12.855Z,114490.28
2022-09-18T22:48:17.382Z,114490.28
2022-09-18T22:50:23.542Z,114490.28
2022-09-18T22:52:27.176Z,114490.28
2022-09-18T22:54:30.832Z,114490.28
2022-09-18T22:56:35.807Z,114490.28
2022-09-18T22:58:41.130Z,114490.28
2022-09-18T23:00:44.812Z,114490.28
2022-09-18T23:02:51.109Z,114490.28
2022-09-18T23:04:58.047Z,114490.28
2022-09-18T23:07:02.520Z,114490.28
2022-09-18T23:09:07.951Z,114490.28
2022-09-18T23:11:13.067Z,114490.28
2022-09-18T23:13:17.297Z,114490.28
2022-09-18T23:15:21.341Z,114490.28
2022-09-18T23:17:25.204Z,114490.28
2022-09-18T23:19:34.146Z,114490.28
2022-09-18T23:21:40.001Z,114490.28
2022-09-18T23:23:45.216Z,114490.28
2022-09-18T23:25:48.801Z,114490.28
2022-09-18T23:27:54.059Z,114490.28
2022-09-18T23:29:57.622Z,114490.28
2022-09-18T23:32:01.537Z,114490.28
2022-09-18T23:34:06.440Z,114490.28
2022-09-18T23:36:19.684Z,114490.28
2022-09-18T23:38:23.412Z,114490.28
2022-09-18T23:40:27.042Z,114490.28
2022-09-18T23:42:30.515Z,114490.28
2022-09-18T23:44:34.507Z,114490.28
2022-09-18T23:46:38.576Z,114490.28
2022-09-18T23:48:42.683Z,114490.28
2022-09-18T23:50:46.332Z,114490.28
2022-09-18T23:52:50.536Z,114490.28
2022-09-18T23:54:54.071Z,114490.28
2022-09-18T23:56:57.598Z,114490.28
2022-09-18T23:59:02.175Z,114490.28
